createdAt,value
2023-03-13T00:00:36.980Z,98369.83
2023-03-13T00:03:08.501Z,98373.88
2023-03-13T00:05:40.673Z,98382.64
2023-03-13T00:08:13.130Z,98385.53
2023-03-13T00:10:45.318Z,98394.95
2023-03-13T00:13:17.584Z,98390.00
2023-03-13T00:15:49.847Z,98395.87
2023-03-13T00:18:22.078Z,98403.15
2023-03-13T00:21:02.742Z,98406.30
2023-03-13T00:23:36.352Z,98408.31
2023-03-13T00:26:11.197Z,98410.70
2023-03-13T00:28:45.930Z,98413.42
2023-03-13T00:31:21.467Z,98412.74
2023-03-13T00:33:56.837Z,98406.84
2023-03-13T00:36:31.531Z,98426.70
2023-03-13T00:39:07.609Z,98431.50
2023-03-13T00:41:39.908Z,98423.75
2023-03-13T00:44:12.741Z,98436.79
2023-03-13T00:46:44.777Z,98436.73
2023-03-13T00:49:17.201Z,98445.17
2023-03-13T00:51:50.547Z,98451.25
2023-03-13T00:54:22.823Z,98450.83
2023-03-13T00:56:55.010Z,98454.55
2023-03-13T00:59:27.812Z,98459.21
2023-03-13T01:02:00.057Z,98456.88
2023-03-13T01:04:32.534Z,98463.05
2023-03-13T01:07:04.934Z,98468.19
2023-03-13T01:09:36.985Z,98473.41
2023-03-13T01:12:09.553Z,98481.16
2023-03-13T01:14:41.718Z,98490.69
2023-03-13T01:17:13.893Z,98493.26
2023-03-13T01:19:45.966Z,98498.77
2023-03-13T01:22:18.087Z,98516.73
2023-03-13T01:24:51.956Z,98513.31
2023-03-13T01:27:24.368Z,98524.45
2023-03-13T01:29:56.631Z,98522.30
2023-03-13T01:32:28.643Z,98519.73
2023-03-13T01:35:07.299Z,98527.41
2023-03-13T01:37:39.625Z,98536.18
2023-03-13T01:40:13.326Z,98538.75
2023-03-13T01:43:00.193Z,98540.41
2023-03-13T01:45:52.087Z,98541.31
2023-03-13T01:48:28.734Z,98553.23
2023-03-13T01:51:03.900Z,98558.34
2023-03-13T01:53:38.533Z,98563.47
2023-03-13T01:56:14.697Z,98578.14
2023-03-13T01:58:47.594Z,98573.77
2023-03-13T02:01:21.484Z,98574.92
2023-03-13T02:03:55.308Z,98580.58
2023-03-13T02:06:28.219Z,98594.25
2023-03-13T02:09:02.908Z,98596.66
2023-03-13T02:11:46.794Z,98606.31
2023-03-13T02:14:22.461Z,98607.45
2023-03-13T02:16:56.618Z,98621.13
2023-03-13T02:19:49.639Z,98616.84
2023-03-13T02:22:43.852Z,98616.08
2023-03-13T02:25:47.420Z,98623.62
2023-03-13T02:28:26.627Z,98630.77
2023-03-13T02:30:59.105Z,98648.71
2023-03-13T02:33:34.571Z,98638.69
2023-03-13T02:36:08.145Z,98643.72
2023-03-13T02:38:43.633Z,98648.87
2023-03-13T02:41:16.340Z,98661.66
2023-03-13T02:43:48.693Z,98660.91
2023-03-13T02:46:22.358Z,98666.83
2023-03-13T02:48:57.679Z,98669.48
2023-03-13T02:51:45.418Z,98675.42
2023-03-13T02:54:23.736Z,98679.72
2023-03-13T02:56:58.660Z,98681.41
2023-03-13T02:59:31.647Z,98693.41
2023-03-13T03:02:04.855Z,98689.83
2023-03-13T03:04:36.753Z,98695.00
2023-03-13T03:07:08.852Z,98690.80
2023-03-13T03:09:41.033Z,98707.03
2023-03-13T03:12:14.594Z,98705.41
2023-03-13T03:14:47.576Z,98708.83
2023-03-13T03:17:20.345Z,98719.09
2023-03-13T03:19:52.669Z,98714.67
2023-03-13T03:22:25.075Z,98728.53
2023-03-13T03:24:57.102Z,98734.56
2023-03-13T03:27:29.514Z,98738.80
2023-03-13T03:30:01.801Z,98733.72
2023-03-13T03:32:34.865Z,98740.52
2023-03-13T03:35:07.570Z,98742.28
2023-03-13T03:37:39.702Z,98739.74
2023-03-13T03:40:13.070Z,98749.83
2023-03-13T03:42:47.151Z,98755.61
2023-03-13T03:45:19.640Z,98755.77
2023-03-13T03:47:51.956Z,98760.13
2023-03-13T03:50:24.181Z,98767.75
2023-03-13T03:52:58.013Z,98774.59
2023-03-13T03:55:33.556Z,98772.13
2023-03-13T03:58:05.889Z,98772.98
2023-03-13T04:00:40.808Z,98783.28
2023-03-13T04:03:13.337Z,98782.48
2023-03-13T04:05:45.616Z,98789.27
2023-03-13T04:08:18.315Z,98791.75
2023-03-13T04:10:50.964Z,98796.08
2023-03-13T04:13:24.921Z,98795.19
2023-03-13T04:15:58.937Z,98801.84
2023-03-13T04:18:31.570Z,98803.64
2023-03-13T04:21:06.640Z,98809.53
2023-03-13T04:23:47.176Z,98810.42
2023-03-13T04:26:19.476Z,98814.69
2023-03-13T04:28:53.469Z,98821.18
2023-03-13T04:31:27.326Z,98826.29
2023-03-13T04:34:12.398Z,98828.11
2023-03-13T04:36:58.015Z,98840.03
2023-03-13T04:39:43.814Z,98840.81
2023-03-13T04:42:18.309Z,98848.49
2023-03-13T04:44:58.754Z,98855.38
2023-03-13T04:47:41.248Z,98862.08
2023-03-13T04:50:24.081Z,98859.48
2023-03-13T04:53:16.042Z,98870.48
2023-03-13T04:56:00.174Z,98872.04
2023-03-13T04:58:46.544Z,98877.12
2023-03-13T05:01:36.290Z,98879.61
2023-03-13T05:04:19.856Z,98888.82
2023-03-13T05:07:00.130Z,98891.88
2023-03-13T05:09:34.013Z,98892.42
2023-03-13T05:12:26.946Z,98894.36
2023-03-13T05:15:04.203Z,98898.86
2023-03-13T05:17:54.865Z,98905.61
2023-03-13T05:20:47.109Z,98910.64
2023-03-13T05:23:29.906Z,98919.80
2023-03-13T05:26:09.476Z,98916.61
2023-03-13T05:29:00.051Z,98916.42
2023-03-13T05:31:43.376Z,98929.99
2023-03-13T05:34:18.177Z,98925.49
2023-03-13T05:37:01.521Z,98937.73
2023-03-13T05:39:36.542Z,98932.83
2023-03-13T05:42:27.599Z,98935.88
2023-03-13T05:45:02.183Z,98930.45
2023-03-13T05:47:40.468Z,98935.16
2023-03-13T05:50:14.571Z,98938.20
2023-03-13T05:53:05.347Z,98937.77
2023-03-13T05:55:42.266Z,98951.33
2023-03-13T05:58:35.474Z,98938.85
2023-03-13T06:01:16.156Z,98950.09
2023-03-13T06:03:49.536Z,98946.03
2023-03-13T06:06:22.542Z,98953.26
2023-03-13T06:08:56.059Z,98953.80
2023-03-13T06:11:29.650Z,98958.74
2023-03-13T06:14:01.853Z,98958.70
2023-03-13T06:16:41.844Z,98974.50
2023-03-13T06:19:18.734Z,98964.67
2023-03-13T06:21:51.656Z,98978.63
2023-03-13T06:24:23.636Z,98984.55
2023-03-13T06:26:58.610Z,98977.53
2023-03-13T06:29:31.108Z,98978.16
2023-03-13T06:32:03.967Z,98984.11
2023-03-13T06:34:37.544Z,98982.11
2023-03-13T06:37:10.891Z,98993.45
2023-03-13T06:39:43.133Z,98988.02
2023-03-13T06:42:15.725Z,98998.34
2023-03-13T06:44:48.278Z,99001.80
2023-03-13T06:47:21.113Z,99007.10
2023-03-13T06:49:53.326Z,99008.50
2023-03-13T06:52:41.246Z,99008.13
2023-03-13T06:55:01.360Z,99020.14
2023-03-13T06:57:33.892Z,99014.46
2023-03-13T07:00:08.017Z,99013.52
2023-03-13T07:02:40.362Z,99011.32
2023-03-13T07:05:14.768Z,99017.63
2023-03-13T07:07:46.891Z,99022.61
2023-03-13T07:10:19.471Z,99023.88
2023-03-13T07:12:51.668Z,99031.38
2023-03-13T07:15:24.374Z,99032.36
2023-03-13T07:17:58.738Z,99043.54
2023-03-13T07:20:31.715Z,99048.52
2023-03-13T07:23:04.435Z,99053.12
2023-03-13T07:25:37.107Z,99050.69
2023-03-13T07:28:10.126Z,99060.18
2023-03-13T07:30:44.127Z,99063.00
2023-03-13T07:33:17.945Z,99056.84
2023-03-13T07:35:53.127Z,99066.17
2023-03-13T07:38:25.214Z,99081.46
2023-03-13T07:40:59.317Z,99074.88
2023-03-13T07:43:31.686Z,99076.88
2023-03-13T07:46:06.346Z,99094.31
2023-03-13T07:48:40.795Z,99106.62
2023-03-13T07:51:17.074Z,99101.63
2023-03-13T07:53:51.227Z,99109.66
2023-03-13T07:56:25.733Z,99107.20
2023-03-13T07:58:57.031Z,99109.22
2023-03-13T08:01:31.068Z,99103.73
2023-03-13T08:04:04.426Z,99113.39
2023-03-13T08:06:36.963Z,99113.99
2023-03-13T08:09:09.962Z,99103.31
2023-03-13T08:11:42.549Z,99110.66
2023-03-13T08:14:15.405Z,99106.31
2023-03-13T08:16:48.980Z,99116.77
2023-03-13T08:19:21.212Z,99111.67
2023-03-13T08:21:53.580Z,99117.75
2023-03-13T08:24:26.274Z,99120.48
2023-03-13T08:26:58.716Z,99114.82
2023-03-13T08:29:31.059Z,99128.00
2023-03-13T08:32:03.380Z,99122.36
2023-03-13T08:34:37.298Z,99125.27
2023-03-13T08:37:09.669Z,99132.39
2023-03-13T08:39:43.753Z,99134.63
2023-03-13T08:42:15.793Z,99141.11
2023-03-13T08:44:48.979Z,99135.70
2023-03-13T08:47:21.286Z,99139.84
2023-03-13T08:49:55.193Z,99147.27
2023-03-13T08:52:27.910Z,99144.05
2023-03-13T08:55:01.345Z,99144.09
2023-03-13T08:57:34.123Z,99148.73
2023-03-13T09:00:08.043Z,99153.75
2023-03-13T09:02:40.445Z,99156.38
2023-03-13T09:05:13.678Z,99158.30
2023-03-13T09:07:49.401Z,99164.97
2023-03-13T09:10:24.112Z,99166.46
2023-03-13T09:12:57.015Z,99177.13
2023-03-13T09:15:29.488Z,99163.23
2023-03-13T09:18:03.253Z,99176.84
2023-03-13T09:20:38.670Z,99169.98
2023-03-13T09:23:11.106Z,99175.98
2023-03-13T09:25:44.082Z,99186.09
2023-03-13T09:28:16.265Z,99171.96
2023-03-13T09:30:50.225Z,99181.12
2023-03-13T09:33:27.023Z,99179.63
2023-03-13T09:36:00.266Z,99197.44
2023-03-13T09:38:33.048Z,99196.88
2023-03-13T09:41:08.262Z,99194.89
2023-03-13T09:43:46.467Z,99196.19
2023-03-13T09:46:36.602Z,99211.53
2023-03-13T09:49:12.802Z,99208.19
2023-03-13T09:51:47.656Z,99219.45
2023-03-13T09:54:31.409Z,99217.95
2023-03-13T09:57:15.462Z,99224.08
2023-03-13T09:59:51.560Z,99228.80
2023-03-13T10:02:35.223Z,99236.72
2023-03-13T10:05:19.114Z,99237.80
2023-03-13T10:07:53.700Z,99238.98
2023-03-13T10:10:40.985Z,99241.71
2023-03-13T10:13:25.210Z,99242.54
2023-03-13T10:16:07.608Z,99242.89
2023-03-13T10:18:41.140Z,99240.47
2023-03-13T10:21:21.659Z,99252.81
2023-03-13T10:23:56.784Z,99264.02
2023-03-13T10:26:35.506Z,99255.80
2023-03-13T10:29:22.843Z,99267.86
2023-03-13T10:32:03.237Z,99265.11
2023-03-13T10:34:54.978Z,99267.86
2023-03-13T10:37:33.717Z,99270.11
2023-03-13T10:40:18.069Z,99276.70
2023-03-13T10:42:50.903Z,99273.06
2023-03-13T10:45:25.359Z,99289.96
2023-03-13T10:47:59.978Z,99278.13
2023-03-13T10:50:37.200Z,99292.95
2023-03-13T10:53:31.677Z,99292.23
2023-03-13T10:56:18.365Z,99307.01
2023-03-13T10:58:53.553Z,99305.13
2023-03-13T11:01:30.303Z,99309.09
2023-03-13T11:04:05.235Z,99314.83
2023-03-13T11:06:37.762Z,99319.38
2023-03-13T11:09:18.747Z,99315.56
2023-03-13T11:11:54.322Z,99320.77
2023-03-13T11:14:27.686Z,99325.77
2023-03-13T11:17:21.520Z,99335.66
2023-03-13T11:19:59.732Z,99326.62
2023-03-13T11:22:47.051Z,99331.42
2023-03-13T11:25:25.003Z,99339.91
2023-03-13T11:28:14.840Z,99340.22
2023-03-13T11:31:06.404Z,99322.97
2023-03-13T11:34:02.777Z,99342.02
2023-03-13T11:37:00.923Z,99355.09
2023-03-13T11:39:38.955Z,99353.63
2023-03-13T11:42:42.141Z,99355.39
2023-03-13T11:45:33.512Z,99361.30
2023-03-13T11:48:37.337Z,99383.31
2023-03-13T11:51:33.662Z,99372.03
2023-03-13T11:54:38.624Z,99372.44
2023-03-13T11:57:16.824Z,99380.90
2023-03-13T11:59:53.660Z,99376.34
2023-03-13T12:02:34.522Z,99387.62
2023-03-13T12:05:12.538Z,99380.31
2023-03-13T12:08:04.137Z,99385.50
2023-03-13T12:10:45.763Z,99386.19
2023-03-13T12:13:32.968Z,99394.71
2023-03-13T12:16:08.382Z,99392.98
2023-03-13T12:18:46.139Z,99417.91
2023-03-13T12:21:33.210Z,99388.56
2023-03-13T12:24:17.986Z,99387.77
2023-03-13T12:26:57.807Z,99394.16
2023-03-13T12:29:39.030Z,99401.03
2023-03-13T12:32:23.080Z,99398.47
2023-03-13T12:35:04.236Z,99402.98
2023-03-13T12:37:42.268Z,99416.99
2023-03-13T12:40:20.712Z,99410.73
2023-03-13T12:43:07.591Z,99422.19
2023-03-13T12:45:43.813Z,99423.57
2023-03-13T12:48:22.200Z,99433.88
2023-03-13T12:51:12.486Z,99437.56
2023-03-13T12:53:59.662Z,99426.67
2023-03-13T12:57:06.500Z,99421.91
2023-03-13T12:59:47.833Z,99426.64
2023-03-13T13:02:22.962Z,99428.27
2023-03-13T13:04:57.889Z,99428.52
2023-03-13T13:07:35.742Z,99421.06
2023-03-13T13:10:17.337Z,99424.81
2023-03-13T13:13:04.942Z,99426.64
2023-03-13T13:15:37.704Z,99424.70
2023-03-13T13:18:18.597Z,99438.16
2023-03-13T13:20:53.059Z,99443.75
2023-03-13T13:23:34.464Z,99445.07
2023-03-13T13:26:33.070Z,99456.34
2023-03-13T13:29:17.720Z,99450.05
2023-03-13T13:31:54.901Z,99456.66
2023-03-13T13:34:35.249Z,99462.11
2023-03-13T13:37:19.876Z,99450.13
2023-03-13T13:39:56.424Z,99456.33
2023-03-13T13:42:41.225Z,99447.41
2023-03-13T13:45:34.255Z,99455.91
2023-03-13T13:48:27.945Z,99455.39
2023-03-13T13:51:15.167Z,99456.97
2023-03-13T13:53:54.393Z,99456.95
2023-03-13T13:56:41.545Z,99451.89
2023-03-13T13:59:27.553Z,99456.98
2023-03-13T14:02:13.113Z,99469.77
2023-03-13T14:04:54.148Z,99473.52
2023-03-13T14:07:35.206Z,99480.44
2023-03-13T14:10:19.308Z,99477.75
2023-03-13T14:12:56.946Z,99476.58
2023-03-13T14:15:33.616Z,99485.14
2023-03-13T14:18:14.511Z,99487.50
2023-03-13T14:21:04.417Z,99479.27
2023-03-13T14:23:47.613Z,99477.72
2023-03-13T14:26:26.095Z,99480.45
2023-03-13T14:29:05.449Z,99490.14
2023-03-13T14:31:39.652Z,99496.31
2023-03-13T14:34:14.217Z,99504.30
2023-03-13T14:37:01.415Z,99495.84
2023-03-13T14:39:37.389Z,99501.07
2023-03-13T14:42:14.698Z,99503.68
2023-03-13T14:44:50.500Z,99498.54
2023-03-13T14:47:29.640Z,99510.75
2023-03-13T14:50:15.001Z,99506.52
2023-03-13T14:52:52.563Z,99510.19
2023-03-13T14:55:28.045Z,99512.90
2023-03-13T14:58:07.524Z,99512.33
2023-03-13T15:00:42.636Z,99504.74
2023-03-13T15:03:23.082Z,99507.67
2023-03-13T15:06:16.455Z,99512.14
2023-03-13T15:08:51.887Z,99508.82
2023-03-13T15:11:35.180Z,99515.06
2023-03-13T15:14:26.371Z,99525.62
2023-03-13T15:16:58.427Z,99529.13
2023-03-13T15:19:30.574Z,99534.38
2023-03-13T15:22:03.432Z,99535.43
2023-03-13T15:24:35.769Z,99534.64
2023-03-13T15:27:19.329Z,99537.32
2023-03-13T15:29:52.316Z,99544.25
2023-03-13T15:32:36.834Z,99538.36
2023-03-13T15:35:12.368Z,99535.80
2023-03-13T15:37:44.574Z,99541.81
2023-03-13T15:40:18.427Z,99544.52
2023-03-13T15:42:50.304Z,99543.78
2023-03-13T15:45:23.375Z,99553.14
2023-03-13T15:47:56.100Z,99557.49
2023-03-13T15:50:32.110Z,99557.61
2023-03-13T15:53:04.351Z,99561.08
2023-03-13T15:55:37.217Z,99565.34
2023-03-13T15:58:13.391Z,99574.73
2023-03-13T16:00:48.724Z,99575.64
2023-03-13T16:03:25.296Z,99582.45
2023-03-13T16:05:58.429Z,99577.36
2023-03-13T16:08:36.512Z,99582.48
2023-03-13T16:11:05.298Z,99585.07
2023-03-13T16:13:38.287Z,99587.66
2023-03-13T16:16:20.942Z,99587.64
2023-03-13T16:18:54.023Z,99591.97
2023-03-13T16:21:28.913Z,99602.17
2023-03-13T16:24:01.325Z,99598.84
2023-03-13T16:26:33.970Z,99604.83
2023-03-13T16:29:06.054Z,99603.15
2023-03-13T16:31:38.676Z,99603.15
2023-03-13T16:34:10.809Z,99609.18
2023-03-13T16:36:42.867Z,99616.11
2023-03-13T16:39:17.035Z,99623.84
2023-03-13T16:41:49.815Z,99614.44
2023-03-13T16:44:21.915Z,99615.22
2023-03-13T16:47:05.176Z,99616.06
2023-03-13T16:49:30.199Z,99621.25
2023-03-13T16:52:02.872Z,99628.92
2023-03-13T16:54:35.591Z,99621.19
2023-03-13T16:57:13.619Z,99623.76
2023-03-13T16:59:46.006Z,99623.69
2023-03-13T17:02:20.220Z,99631.41
2023-03-13T17:04:52.295Z,99633.16
2023-03-13T17:07:27.813Z,99629.77
2023-03-13T17:10:00.266Z,99640.08
2023-03-13T17:12:33.260Z,99642.67
2023-03-13T17:15:14.112Z,99635.77
2023-03-13T17:17:51.319Z,99642.66
2023-03-13T17:20:29.049Z,99646.94
2023-03-13T17:23:01.440Z,99647.81
2023-03-13T17:25:33.802Z,99645.16
2023-03-13T17:28:06.003Z,99644.33
2023-03-13T17:30:38.361Z,99649.50
2023-03-13T17:33:11.441Z,99652.09
2023-03-13T17:35:44.984Z,99654.66
2023-03-13T17:38:28.182Z,99658.97
2023-03-13T17:41:00.627Z,99656.43
2023-03-13T17:43:32.952Z,99654.75
2023-03-13T17:46:05.442Z,99654.72
2023-03-13T17:48:37.891Z,99659.86
2023-03-13T17:51:15.035Z,99666.72
2023-03-13T17:53:48.747Z,99669.28
2023-03-13T17:56:26.711Z,99658.99
2023-03-13T17:59:01.201Z,99665.02
2023-03-13T18:01:36.012Z,99664.14
2023-03-13T18:04:08.703Z,99663.26
2023-03-13T18:06:50.818Z,99668.41
2023-03-13T18:09:23.809Z,99664.13
2023-03-13T18:11:55.943Z,99662.44
2023-03-13T18:14:28.093Z,99670.98
2023-03-13T18:17:00.193Z,99673.63
2023-03-13T18:19:32.655Z,99672.77
2023-03-13T18:22:04.877Z,99671.05
2023-03-13T18:24:37.122Z,99683.05
2023-03-13T18:27:15.391Z,99672.83
2023-03-13T18:29:49.825Z,99673.72
2023-03-13T18:32:21.913Z,99680.59
2023-03-13T18:34:54.107Z,99672.87
2023-03-13T18:37:32.890Z,99677.10
2023-03-13T18:40:06.810Z,99676.27
2023-03-13T18:42:40.243Z,99678.78
2023-03-13T18:45:18.114Z,99677.09
2023-03-13T18:47:50.347Z,99677.09
2023-03-13T18:50:31.098Z,99685.67
2023-03-13T18:53:03.314Z,99680.55
2023-03-13T18:55:35.236Z,99680.55
2023-03-13T18:58:07.478Z,99690.03
2023-03-13T19:00:39.693Z,99686.58
2023-03-13T19:03:11.745Z,99699.42
2023-03-13T19:05:43.894Z,99698.62
2023-03-13T19:08:15.934Z,99702.89
2023-03-13T19:10:48.003Z,99704.64
2023-03-13T19:13:20.344Z,99705.47
2023-03-13T19:15:52.807Z,99710.66
2023-03-13T19:18:26.001Z,99714.93
2023-03-13T19:20:58.981Z,99726.09
2023-03-13T19:23:31.270Z,99719.24
2023-03-13T19:26:03.125Z,99721.77
2023-03-13T19:28:35.326Z,99715.75
2023-03-13T19:31:07.313Z,99720.95
2023-03-13T19:33:39.350Z,99718.37
2023-03-13T19:36:13.971Z,99718.37
2023-03-13T19:38:46.460Z,99714.10
2023-03-13T19:41:21.562Z,99712.41
2023-03-13T19:43:53.676Z,99721.00
2023-03-13T19:46:30.842Z,99709.89
2023-03-13T19:49:04.537Z,99720.17
2023-03-13T19:51:36.924Z,99724.48
2023-03-13T19:54:12.502Z,99724.49
2023-03-13T19:56:47.092Z,99725.37
2023-03-13T19:59:21.485Z,99725.37
2023-03-13T20:01:55.135Z,99728.80
2023-03-13T20:04:28.134Z,99717.64
2023-03-13T20:07:02.431Z,99726.19
2023-03-13T20:09:36.555Z,99733.07
2023-03-13T20:12:08.045Z,99730.50
2023-03-13T20:14:39.758Z,99723.58
2023-03-13T20:17:11.695Z,99727.89
2023-03-13T20:19:43.606Z,99722.78
2023-03-13T20:22:16.340Z,99729.67
2023-03-13T20:24:48.738Z,99725.40
2023-03-13T20:27:20.972Z,99725.44
2023-03-13T20:29:53.088Z,99722.00
2023-03-13T20:32:25.503Z,99717.72
2023-03-13T20:34:58.096Z,99716.89
2023-03-13T20:37:32.295Z,99728.03
2023-03-13T20:40:06.977Z,99722.89
2023-03-13T20:42:41.530Z,99709.20
2023-03-13T20:45:13.606Z,99711.77
2023-03-13T20:47:45.742Z,99719.51
2023-03-13T20:50:19.817Z,99710.94
2023-03-13T20:52:52.105Z,99711.80
2023-03-13T20:55:24.377Z,99705.80
2023-03-13T20:57:56.612Z,99710.09
2023-03-13T21:00:28.809Z,99713.50
2023-03-13T21:03:01.369Z,99705.80
2023-03-13T21:05:33.592Z,99704.96
2023-03-13T21:08:05.450Z,99705.82
2023-03-13T21:10:41.752Z,99698.11
2023-03-13T21:13:13.710Z,99699.84
2023-03-13T21:15:46.183Z,99698.97
2023-03-13T21:18:18.020Z,99699.84
2023-03-13T21:20:50.149Z,99704.98
2023-03-13T21:23:22.185Z,99706.68
2023-03-13T21:25:59.578Z,99701.55
2023-03-13T21:28:32.273Z,99698.11
2023-03-13T21:31:15.537Z,99698.98
2023-03-13T21:33:47.985Z,99697.27
2023-03-13T21:36:22.025Z,99701.55
2023-03-13T21:38:53.076Z,99700.72
2023-03-13T21:41:24.875Z,99712.68
2023-03-13T21:43:57.079Z,99707.56
2023-03-13T21:46:30.643Z,99700.70
2023-03-13T21:49:03.270Z,99706.70
2023-03-13T21:51:35.440Z,99706.69
2023-03-13T21:54:08.456Z,99689.58
2023-03-13T21:56:40.598Z,99694.73
2023-03-13T21:59:12.703Z,99694.73
2023-03-13T22:01:44.774Z,99699.00
2023-03-13T22:04:16.790Z,99696.44
2023-03-13T22:06:48.712Z,99682.73
2023-03-13T22:09:20.671Z,99685.30
2023-03-13T22:11:52.686Z,99685.30
2023-03-13T22:14:25.914Z,99683.60
2023-03-13T22:16:58.112Z,99672.47
2023-03-13T22:19:30.043Z,99675.90
2023-03-13T22:22:04.070Z,99663.91
2023-03-13T22:24:36.529Z,99676.74
2023-03-13T22:27:10.694Z,99671.61
2023-03-13T22:29:42.212Z,99652.78
2023-03-13T22:32:14.280Z,99653.62
2023-03-13T22:34:48.197Z,99654.48
2023-03-13T22:37:21.259Z,99655.32
2023-03-13T22:39:54.111Z,99650.16
2023-03-13T22:42:27.051Z,99645.02
2023-03-13T22:44:59.127Z,99652.69
2023-03-13T22:47:32.781Z,99646.69
2023-03-13T22:50:05.240Z,99643.28
2023-03-13T22:52:37.262Z,99637.27
2023-03-13T22:55:09.780Z,99638.97
2023-03-13T22:57:41.830Z,99632.09
2023-03-13T23:00:14.586Z,99620.98
2023-03-13T23:02:46.543Z,99618.41
2023-03-13T23:05:19.568Z,99614.97
2023-03-13T23:07:52.005Z,99610.67
2023-03-13T23:10:23.932Z,99611.53
2023-03-13T23:12:55.948Z,99604.65
2023-03-13T23:15:33.476Z,99597.77
2023-03-13T23:18:01.777Z,99596.89
2023-03-13T23:20:34.027Z,99596.89
2023-03-13T23:23:06.037Z,99592.58
2023-03-13T23:25:40.180Z,99589.98
2023-03-13T23:28:12.157Z,99586.54
2023-03-13T23:30:44.181Z,99587.37
2023-03-13T23:33:16.558Z,99571.93
2023-03-13T23:35:48.948Z,99565.03
2023-03-13T23:38:22.822Z,99567.58
2023-03-13T23:40:54.870Z,99566.70
2023-03-13T23:43:26.847Z,99558.92
2023-03-13T23:45:59.037Z,99548.64
2023-03-13T23:48:31.460Z,99555.45
2023-03-13T23:51:07.873Z,99544.28
2023-03-13T23:53:41.934Z,99532.28
2023-03-13T23:56:14.232Z,99541.67
2023-03-13T23:58:46.477Z,99524.47
